createdAt,value
2022-07-25T00:02:14.651Z,97054.22
2022-07-25T00:07:17.665Z,97049.88
2022-07-25T00:12:20.398Z,97040.69
2022-07-25T00:17:22.066Z,97036.28
2022-07-25T00:22:23.863Z,97031.28
2022-07-25T00:27:25.819Z,97034.56
2022-07-25T00:32:27.669Z,97028.81
2022-07-25T00:37:29.442Z,97021.81
2022-07-25T00:42:32.329Z,97015.78
2022-07-25T00:47:34.062Z,97008.59
2022-07-25T00:52:36.503Z,97013.97
2022-07-25T00:57:38.246Z,97008.91
2022-07-25T01:02:41.319Z,97008.13
2022-07-25T01:07:43.284Z,97001.88
2022-07-25T01:12:49.073Z,97000.03
2022-07-25T01:17:51.984Z,96999.66
2022-07-25T01:22:54.664Z,97005.94
2022-07-25T01:27:57.701Z,96999.94
2022-07-25T01:32:59.425Z,96998.09
2022-07-25T01:38:08.241Z,96996.94
2022-07-25T01:43:10.666Z,96995.19
2022-07-25T01:48:12.379Z,96994.25
2022-07-25T01:53:14.039Z,96994.91
2022-07-25T01:58:15.826Z,96986.56
2022-07-25T02:03:30.598Z,96979.06
2022-07-25T02:08:32.715Z,96969.09
2022-07-25T02:13:34.661Z,96971.38
2022-07-25T02:18:36.790Z,96956.06
2022-07-25T02:23:40.663Z,96964.97
2022-07-25T02:28:42.402Z,96972.63
2022-07-25T02:33:44.959Z,96967.59
2022-07-25T02:38:46.698Z,96970.22
2022-07-25T02:43:48.516Z,96971.84
2022-07-25T02:48:50.353Z,96967.78
2022-07-25T02:53:57.722Z,96963.38
2022-07-25T02:59:00.664Z,96961.06
2022-07-25T03:04:02.627Z,96959.09
2022-07-25T03:09:04.719Z,96965.97
2022-07-25T03:14:08.420Z,96975.13
2022-07-25T03:19:12.727Z,96969.91
2022-07-25T03:24:14.863Z,96963.53
2022-07-25T03:29:16.619Z,96972.34
2022-07-25T03:34:18.940Z,96973.47
2022-07-25T03:39:21.036Z,96962.72
2022-07-25T03:44:24.304Z,96961.72
2022-07-25T03:49:25.974Z,96953.03
2022-07-25T03:54:27.824Z,96953.44
2022-07-25T03:59:29.920Z,96951.50
2022-07-25T04:04:31.851Z,96949.88
2022-07-25T04:09:33.889Z,96955.50
2022-07-25T04:14:36.725Z,96952.56
2022-07-25T04:19:38.467Z,96959.44
2022-07-25T04:24:40.338Z,96953.91
2022-07-25T04:29:42.388Z,96943.78
2022-07-25T04:34:44.740Z,96939.22
2022-07-25T04:39:46.506Z,96943.28
2022-07-25T04:44:48.210Z,96942.66
2022-07-25T04:49:49.975Z,96931.22
2022-07-25T04:54:51.838Z,96933.66
2022-07-25T04:59:53.719Z,96933.66
2022-07-25T05:04:55.449Z,96935.44
2022-07-25T05:09:57.399Z,96931.69
2022-07-25T05:14:59.088Z,96917.13
2022-07-25T05:20:00.913Z,96915.44
2022-07-25T05:25:05.967Z,96904.44
2022-07-25T05:30:09.549Z,96907.06
2022-07-25T05:35:11.408Z,96910.25
2022-07-25T05:40:13.264Z,96915.44
2022-07-25T05:45:15.438Z,96926.16
2022-07-25T05:50:17.398Z,96913.13
2022-07-25T05:55:19.338Z,96908.69
2022-07-25T06:00:21.213Z,96902.63
2022-07-25T06:05:23.137Z,96900.31
2022-07-25T06:10:25.184Z,96891.59
2022-07-25T06:15:27.662Z,96881.72
2022-07-25T06:20:29.507Z,96874.75
2022-07-25T06:25:31.246Z,96876.09
2022-07-25T06:30:33.494Z,96871.34
2022-07-25T06:35:35.699Z,96871.78
2022-07-25T06:40:37.629Z,96866.78
2022-07-25T06:45:39.298Z,96870.03
2022-07-25T06:50:41.064Z,96869.22
2022-07-25T06:55:42.967Z,96858.81
2022-07-25T07:00:44.803Z,96850.78
2022-07-25T07:05:46.664Z,96861.41
2022-07-25T07:10:48.502Z,96845.56
2022-07-25T07:15:51.063Z,96853.97
2022-07-25T07:20:53.590Z,96848.66
2022-07-25T07:25:55.331Z,96848.28
2022-07-25T07:36:19.006Z,96852.63
2022-07-25T07:41:21.578Z,96842.53
2022-07-25T07:46:23.314Z,96837.53
2022-07-25T07:51:25.099Z,96836.63
2022-07-25T07:56:28.136Z,96838.63
2022-07-25T08:01:30.359Z,96828.34
2022-07-25T08:06:32.104Z,96832.94
2022-07-25T08:11:33.862Z,96819.19
2022-07-25T08:16:35.725Z,96819.81
2022-07-25T08:21:37.573Z,96817.72
2022-07-25T08:26:39.442Z,96817.53
2022-07-25T08:31:41.246Z,96816.66
2022-07-25T08:36:43.242Z,96815.75
2022-07-25T08:41:45.799Z,96806.78
2022-07-25T08:46:48.224Z,96797.44
2022-07-25T08:51:51.061Z,96799.31
2022-07-25T08:56:54.413Z,96799.50
2022-07-25T09:01:56.970Z,96792.03
2022-07-25T09:06:58.825Z,96793.00
2022-07-25T09:12:01.484Z,96782.72
2022-07-25T09:17:06.716Z,96776.31
2022-07-25T09:22:24.687Z,96780.00
2022-07-25T09:27:26.482Z,96774.09
2022-07-25T09:32:29.197Z,96776.19
2022-07-25T09:37:30.984Z,96765.31
2022-07-25T09:42:32.839Z,96763.75
2022-07-25T09:47:38.067Z,96752.50
2022-07-25T09:52:40.349Z,96746.03
2022-07-25T09:57:42.683Z,96749.25
2022-07-25T10:02:53.066Z,96742.75
2022-07-25T10:07:55.653Z,96738.72
2022-07-25T10:13:11.326Z,96733.81
2022-07-25T10:18:14.832Z,96738.53
2022-07-25T10:23:25.846Z,96729.94
2022-07-25T10:28:48.573Z,96731.09
2022-07-25T10:33:53.294Z,96722.19
2022-07-25T10:38:58.191Z,96727.69
2022-07-25T10:44:02.019Z,96720.31
2022-07-25T10:49:06.339Z,96709.63
2022-07-25T10:54:17.933Z,96703.72
2022-07-25T10:59:30.957Z,96691.53
2022-07-25T11:04:37.696Z,96689.00
2022-07-25T11:09:41.371Z,96687.19
2022-07-25T11:14:43.484Z,96680.44
2022-07-25T11:19:58.102Z,96666.56
2022-07-25T11:25:01.012Z,96671.66
2022-07-25T11:30:17.446Z,96661.84
2022-07-25T11:35:25.990Z,96653.44
2022-07-25T11:40:28.483Z,96651.13
2022-07-25T11:45:33.610Z,96643.22
2022-07-25T11:50:41.843Z,96641.59
2022-07-25T11:55:43.995Z,96625.28
2022-07-25T12:00:48.675Z,96630.03
2022-07-25T12:05:50.611Z,96616.94
2022-07-25T12:10:52.317Z,96612.78
2022-07-25T12:15:56.292Z,96605.22
2022-07-25T12:20:57.977Z,96607.59
2022-07-25T12:26:00.069Z,96595.69
2022-07-25T12:31:01.915Z,96595.41
2022-07-25T12:36:08.422Z,96593.81
2022-07-25T12:41:14.586Z,96581.63
2022-07-25T12:46:19.524Z,96580.06
2022-07-25T12:51:21.221Z,96571.63
2022-07-25T12:56:23.067Z,96562.72
2022-07-25T13:01:24.959Z,96554.72
2022-07-25T13:06:26.925Z,96559.56
2022-07-25T13:11:28.769Z,96550.91
2022-07-25T13:16:30.762Z,96533.47
2022-07-25T13:21:32.538Z,96529.41
2022-07-25T13:26:34.911Z,96528.31
2022-07-25T13:31:41.037Z,96516.47
2022-07-25T13:36:43.118Z,96514.88
2022-07-25T13:41:44.963Z,96509.84
2022-07-25T13:46:50.006Z,96500.78
2022-07-25T13:51:51.807Z,96490.97
2022-07-25T13:56:53.663Z,96490.22
2022-07-25T14:01:55.526Z,96484.09
2022-07-25T14:06:57.407Z,96474.19
2022-07-25T14:11:59.118Z,96463.66
2022-07-25T14:17:00.949Z,96457.03
2022-07-25T14:22:02.714Z,96462.41
2022-07-25T14:27:04.820Z,96457.94
2022-07-25T14:32:08.176Z,96454.66
2022-07-25T14:37:10.231Z,96449.00
2022-07-25T14:42:11.962Z,96447.69
2022-07-25T14:47:13.798Z,96449.09
2022-07-25T14:52:16.395Z,96431.66
2022-07-25T14:57:18.647Z,96444.78
2022-07-25T15:02:20.680Z,96435.25
2022-07-25T15:07:22.392Z,96430.81
2022-07-25T15:12:24.138Z,96421.63
2022-07-25T15:17:25.946Z,96415.41
2022-07-25T15:22:27.700Z,96399.41
2022-07-25T15:27:29.614Z,96397.72
2022-07-25T15:32:31.363Z,96387.13
2022-07-25T15:37:33.028Z,96382.38
2022-07-25T15:42:34.921Z,96381.47
2022-07-25T15:47:38.423Z,96368.03
2022-07-25T15:52:40.143Z,96380.59
2022-07-25T15:57:41.959Z,96366.28
2022-07-25T16:02:45.949Z,96355.47
2022-07-25T16:07:48.284Z,96361.97
2022-07-25T16:12:50.080Z,96343.72
2022-07-25T16:17:53.495Z,96333.66
2022-07-25T16:22:57.564Z,96329.78
2022-07-25T16:27:59.814Z,96335.50
2022-07-25T16:33:01.731Z,96348.72
2022-07-25T16:38:03.552Z,96344.63
2022-07-25T16:43:05.326Z,96361.53
2022-07-25T16:48:07.362Z,96367.09
2022-07-25T16:53:09.282Z,96498.56
2022-07-25T16:58:11.158Z,96465.59
2022-07-25T17:03:12.872Z,96486.94
2022-07-25T17:08:14.555Z,96503.84
2022-07-25T17:13:16.795Z,96529.75
2022-07-25T17:18:18.527Z,96510.34
2022-07-25T17:23:21.394Z,96523.41
2022-07-25T17:28:23.251Z,96511.97
2022-07-25T17:33:24.963Z,96498.69
2022-07-25T17:38:30.324Z,96495.94
2022-07-25T17:43:36.174Z,96495.06
2022-07-25T17:48:37.931Z,96473.72
2022-07-25T17:53:39.753Z,96499.63
2022-07-25T17:58:41.511Z,96491.16
2022-07-25T18:03:47.375Z,96483.41
2022-07-25T18:08:49.046Z,96508.91
2022-07-25T18:13:50.746Z,96499.50
2022-07-25T18:18:52.514Z,96503.75
2022-07-25T18:23:54.219Z,96482.63
2022-07-25T18:28:55.962Z,96485.59
2022-07-25T18:33:57.663Z,96487.84
2022-07-25T18:38:59.509Z,96503.19
2022-07-25T18:44:01.778Z,96511.16
2022-07-25T18:49:03.573Z,96517.38
2022-07-25T18:54:05.915Z,96530.19
2022-07-25T18:59:08.194Z,96523.78
2022-07-25T19:04:11.496Z,96539.47
2022-07-25T19:09:13.297Z,96529.91
2022-07-25T19:14:15.196Z,96534.50
2022-07-25T19:19:17.204Z,96540.09
2022-07-25T19:24:19.076Z,96529.19
2022-07-25T19:29:20.950Z,96534.34
2022-07-25T19:34:23.662Z,96539.25
2022-07-25T19:39:25.517Z,96542.88
2022-07-25T19:44:27.336Z,96540.72
2022-07-25T19:49:29.142Z,96549.03
2022-07-25T19:54:30.986Z,96541.94
2022-07-25T19:59:34.703Z,96563.59
2022-07-25T20:04:36.899Z,96580.41
2022-07-25T20:09:39.729Z,96596.31
2022-07-25T20:14:41.531Z,96601.91
2022-07-25T20:19:43.678Z,96603.41
2022-07-25T20:24:45.859Z,96598.69
2022-07-25T20:29:47.800Z,96576.78
2022-07-25T20:34:49.555Z,96577.13
2022-07-25T20:39:51.694Z,96555.50
2022-07-25T20:44:53.725Z,96545.69
2022-07-25T20:49:55.472Z,96539.31
2022-07-25T20:54:57.627Z,96544.25
2022-07-25T21:00:00.413Z,96567.94
2022-07-25T21:05:02.807Z,96611.41
2022-07-25T21:10:05.053Z,96659.31
2022-07-25T21:15:08.186Z,96714.81
2022-07-25T21:20:12.825Z,96644.97
2022-07-25T21:25:15.358Z,96720.00
2022-07-25T21:30:17.371Z,96721.63
2022-07-25T21:35:19.250Z,96734.41
2022-07-25T21:40:20.978Z,96739.94
2022-07-25T21:45:23.086Z,96764.28
2022-07-25T21:50:42.235Z,96789.22
2022-07-25T21:55:45.795Z,96808.72
2022-07-25T22:00:47.709Z,96839.84
2022-07-25T22:05:49.443Z,96854.72
2022-07-25T22:10:51.448Z,96841.63
2022-07-25T22:15:53.846Z,96830.44
2022-07-25T22:20:55.749Z,96838.41
2022-07-25T22:25:57.521Z,96834.34
2022-07-25T22:30:59.333Z,96844.00
2022-07-25T22:36:01.659Z,96865.72
2022-07-25T22:41:03.373Z,96872.03
2022-07-25T22:46:05.121Z,96875.56
2022-07-25T22:51:06.996Z,96895.84
2022-07-25T22:56:08.768Z,96913.88
2022-07-25T23:01:10.941Z,96936.13
2022-07-25T23:06:12.832Z,96951.28
2022-07-25T23:11:14.537Z,96953.59
2022-07-25T23:16:16.428Z,96955.31
2022-07-25T23:21:18.166Z,96977.00
2022-07-25T23:26:19.926Z,96976.06
2022-07-25T23:31:21.746Z,96974.91
2022-07-25T23:36:23.501Z,96979.13
2022-07-25T23:41:25.173Z,96981.31
2022-07-25T23:46:29.545Z,96974.00
2022-07-25T23:51:33.525Z,96974.97
2022-07-25T23:56:35.202Z,96978.47
